createdAt,value
2018-07-13T00:01:18.906Z,12.60
2018-07-13T00:03:46.578Z,12.00
2018-07-13T00:06:14.233Z,9.33
2018-07-13T00:08:41.899Z,8.30
2018-07-13T00:11:09.941Z,11.43
2018-07-13T00:13:57.807Z,12.00
2018-07-13T00:16:25.713Z,8.63
2018-07-13T00:18:53.551Z,7.97
2018-07-13T00:21:21.225Z,12.27
2018-07-13T00:23:48.889Z,8.93
2018-07-13T00:26:16.557Z,17.07
2018-07-13T00:28:44.429Z,14.53
2018-07-13T00:31:12.087Z,13.80
2018-07-13T00:33:39.719Z,9.77
2018-07-13T00:36:07.453Z,11.00
2018-07-13T00:38:35.134Z,11.90
2018-07-13T00:41:02.793Z,15.23
2018-07-13T00:43:30.492Z,13.03
2018-07-13T00:45:58.190Z,16.60
2018-07-13T00:48:25.897Z,12.60
2018-07-13T00:50:53.572Z,11.73
2018-07-13T00:53:21.261Z,18.93
2018-07-13T00:55:48.953Z,15.30
2018-07-13T00:58:16.775Z,10.57
2018-07-13T01:00:44.415Z,13.27
2018-07-13T01:03:12.070Z,15.23
2018-07-13T01:05:39.946Z,16.73
2018-07-13T01:08:07.621Z,16.73
2018-07-13T01:10:35.306Z,15.30
2018-07-13T01:13:03.016Z,10.73
2018-07-13T01:15:30.771Z,11.93
2018-07-13T01:17:58.470Z,16.20
2018-07-13T01:20:26.366Z,12.93
2018-07-13T01:22:54.175Z,15.03
2018-07-13T01:25:21.818Z,12.33
2018-07-13T01:27:49.519Z,12.53
2018-07-13T01:30:17.214Z,17.70
2018-07-13T01:32:45.048Z,12.10
2018-07-13T01:35:12.735Z,12.07
2018-07-13T01:37:40.368Z,14.53
2018-07-13T01:40:08.022Z,10.17
2018-07-13T01:42:35.893Z,13.83
2018-07-13T01:45:03.769Z,16.20
2018-07-13T01:47:31.580Z,16.20
2018-07-13T01:49:59.471Z,14.33
2018-07-13T01:52:27.182Z,13.77
2018-07-13T01:54:55.058Z,13.90
2018-07-13T01:57:22.858Z,11.90
2018-07-13T01:59:50.508Z,16.67
2018-07-13T02:02:18.447Z,12.23
2018-07-13T02:04:46.531Z,15.33
2018-07-13T02:07:14.208Z,18.07
2018-07-13T02:09:41.857Z,17.80
2018-07-13T02:12:09.739Z,13.00
2018-07-13T02:14:37.385Z,11.90
2018-07-13T02:17:05.648Z,14.70
2018-07-13T02:19:33.466Z,14.00
2018-07-13T02:22:01.132Z,17.10
2018-07-13T02:24:28.799Z,15.03
2018-07-13T02:26:56.632Z,14.50
2018-07-13T02:29:24.212Z,13.47
2018-07-13T02:31:51.892Z,15.03
2018-07-13T02:34:19.567Z,15.17
2018-07-13T02:36:47.312Z,17.27
2018-07-13T02:39:15.000Z,17.33
2018-07-13T02:41:42.694Z,16.80
2018-07-13T02:44:10.370Z,12.40
2018-07-13T02:46:38.048Z,13.03
2018-07-13T02:49:05.696Z,17.83
2018-07-13T02:51:33.277Z,13.00
2018-07-13T02:54:00.928Z,13.30
2018-07-13T02:56:28.735Z,15.13
2018-07-13T02:58:56.555Z,12.03
2018-07-13T03:01:24.782Z,10.67
2018-07-13T03:03:52.753Z,11.07
2018-07-13T03:06:20.405Z,12.37
2018-07-13T03:08:48.057Z,13.50
2018-07-13T03:11:15.720Z,12.00
2018-07-13T03:13:43.397Z,11.60
2018-07-13T03:16:11.070Z,12.33
2018-07-13T03:18:38.784Z,10.50
2018-07-13T03:21:06.513Z,10.30
2018-07-13T03:23:34.178Z,13.23
2018-07-13T03:26:01.873Z,13.67
2018-07-13T03:28:29.764Z,12.33
2018-07-13T03:30:57.425Z,13.07
2018-07-13T03:33:25.091Z,10.27
2018-07-13T03:35:52.745Z,17.57
2018-07-13T03:38:20.439Z,14.37
2018-07-13T03:40:48.101Z,12.07
2018-07-13T03:43:15.779Z,19.30
2018-07-13T03:45:43.426Z,8.23
2018-07-13T03:48:11.216Z,15.50
2018-07-13T03:50:38.892Z,15.63
2018-07-13T03:53:06.775Z,20.80
2018-07-13T03:55:34.673Z,15.30
2018-07-13T03:58:02.358Z,11.97
2018-07-13T04:00:30.079Z,13.13
2018-07-13T04:02:57.749Z,14.17
2018-07-13T04:05:25.411Z,13.77
2018-07-13T04:07:53.377Z,18.70
2018-07-13T04:10:21.071Z,15.07
2018-07-13T04:12:48.727Z,10.77
2018-07-13T04:15:16.406Z,11.93
2018-07-13T04:17:44.213Z,15.87
2018-07-13T04:20:11.887Z,16.23
2018-07-13T04:22:39.674Z,12.67
2018-07-13T04:25:07.367Z,16.60
2018-07-13T04:27:36.503Z,11.17
2018-07-13T04:30:04.919Z,15.37
2018-07-13T04:32:32.753Z,15.83
2018-07-13T04:35:00.419Z,15.13
2018-07-13T04:37:28.159Z,11.47
2018-07-13T04:39:55.807Z,15.47
2018-07-13T04:42:23.481Z,11.93
2018-07-13T04:44:51.149Z,15.77
2018-07-13T04:47:19.041Z,10.27
2018-07-13T04:49:46.904Z,20.83
2018-07-13T04:52:14.692Z,12.30
2018-07-13T04:54:42.487Z,13.47
2018-07-13T04:57:10.196Z,14.43
2018-07-13T04:59:38.141Z,11.80
2018-07-13T05:02:05.951Z,17.10
2018-07-13T05:04:33.933Z,17.23
2018-07-13T05:07:01.679Z,11.13
2018-07-13T05:09:29.481Z,11.57
2018-07-13T05:11:57.229Z,13.40
2018-07-13T05:14:24.914Z,17.33
2018-07-13T05:16:52.798Z,16.87
2018-07-13T05:19:20.618Z,12.63
2018-07-13T05:21:48.399Z,14.73
2018-07-13T05:24:16.278Z,18.53
2018-07-13T05:26:44.076Z,20.00
2018-07-13T05:29:11.750Z,19.87
2018-07-13T05:31:40.111Z,11.23
2018-07-13T05:34:08.124Z,20.03
2018-07-13T05:36:35.912Z,20.03
2018-07-13T05:39:05.333Z,16.43
2018-07-13T05:41:33.116Z,11.17
2018-07-13T05:44:00.877Z,13.50
2018-07-13T05:46:28.660Z,12.60
2018-07-13T05:48:56.509Z,11.37
2018-07-13T05:51:24.271Z,13.10
2018-07-13T05:53:51.907Z,16.60
2018-07-13T05:56:19.677Z,15.97
2018-07-13T05:58:47.961Z,21.07
2018-07-13T06:01:15.790Z,13.87
2018-07-13T06:03:43.701Z,12.97
2018-07-13T06:06:11.482Z,17.57
2018-07-13T06:08:39.244Z,16.87
2018-07-13T06:11:07.057Z,14.37
2018-07-13T06:13:34.969Z,15.83
2018-07-13T06:16:02.659Z,14.27
2018-07-13T06:18:30.351Z,15.27
2018-07-13T06:20:57.981Z,17.60
2018-07-13T06:23:25.746Z,12.50
2018-07-13T06:25:53.431Z,14.93
2018-07-13T06:28:21.229Z,14.47
2018-07-13T06:30:49.293Z,13.23
2018-07-13T06:33:16.968Z,16.30
2018-07-13T06:35:44.834Z,12.80
2018-07-13T06:38:12.606Z,16.57
2018-07-13T06:40:40.428Z,10.77
2018-07-13T06:43:08.453Z,18.43
2018-07-13T06:45:37.172Z,16.30
2018-07-13T06:48:05.093Z,9.40
2018-07-13T06:50:32.981Z,14.50
2018-07-13T06:53:00.608Z,10.80
2018-07-13T06:55:28.345Z,6.80
2018-07-13T06:58:07.300Z,12.97
2018-07-13T07:01:06.931Z,8.77
2018-07-13T07:03:41.456Z,6.00
2018-07-13T07:06:12.372Z,9.03
2018-07-13T07:08:41.181Z,9.70
2018-07-13T07:11:09.453Z,11.10
2018-07-13T07:13:39.366Z,12.43
2018-07-13T07:16:07.076Z,10.63
2018-07-13T07:18:34.881Z,10.83
2018-07-13T07:21:02.752Z,14.83
2018-07-13T07:23:30.828Z,12.00
2018-07-13T07:25:59.558Z,15.63
2018-07-13T07:28:27.413Z,10.33
2018-07-13T07:30:56.080Z,8.80
2018-07-13T07:33:23.900Z,7.27
2018-07-13T07:35:52.010Z,7.47
2018-07-13T07:38:19.789Z,10.27
2018-07-13T07:40:48.121Z,7.17
2018-07-13T07:43:16.117Z,13.93
2018-07-13T07:45:44.083Z,10.33
2018-07-13T07:48:12.133Z,8.30
2018-07-13T07:50:39.862Z,15.03
2018-07-13T07:53:07.607Z,10.67
2018-07-13T07:55:35.271Z,8.23
2018-07-13T07:58:03.192Z,13.50
2018-07-13T08:00:31.036Z,5.77
2018-07-13T08:02:58.882Z,8.87
2018-07-13T08:05:26.684Z,11.93
2018-07-13T08:07:54.434Z,8.70
2018-07-13T08:10:22.317Z,8.93
2018-07-13T08:12:50.393Z,6.67
2018-07-13T08:15:18.170Z,10.93
2018-07-13T08:17:45.809Z,8.87
2018-07-13T08:20:21.888Z,9.03
2018-07-13T08:22:53.805Z,9.17
2018-07-13T08:25:22.132Z,13.97
2018-07-13T08:27:52.564Z,11.23
2018-07-13T08:30:27.346Z,12.93
2018-07-13T08:32:55.014Z,10.13
2018-07-13T08:35:22.650Z,15.30
2018-07-13T08:37:50.488Z,10.43
2018-07-13T08:40:18.132Z,10.13
2018-07-13T08:42:45.836Z,10.50
2018-07-13T08:45:13.580Z,10.23
2018-07-13T08:47:41.259Z,9.80
2018-07-13T08:50:08.995Z,7.77
2018-07-13T08:52:36.753Z,7.13
2018-07-13T08:55:09.180Z,5.93
2018-07-13T08:57:37.160Z,13.70
2018-07-13T09:00:05.365Z,7.97
2018-07-13T09:02:33.297Z,5.93
2018-07-13T09:05:01.387Z,6.00
2018-07-13T09:07:30.568Z,5.90
2018-07-13T09:09:58.921Z,9.10
2018-07-13T09:12:27.021Z,8.03
2018-07-13T09:14:55.088Z,5.03
2018-07-13T09:17:22.984Z,17.13
2018-07-13T09:19:51.097Z,8.97
2018-07-13T09:22:18.824Z,4.20
2018-07-13T09:24:46.647Z,5.17
2018-07-13T09:27:14.557Z,10.83
2018-07-13T09:29:42.246Z,4.43
2018-07-13T09:32:09.977Z,6.83
2018-07-13T09:34:37.822Z,6.37
2018-07-13T09:37:05.779Z,10.40
2018-07-13T09:39:33.487Z,8.70
2018-07-13T09:42:01.344Z,12.47
2018-07-13T09:44:29.281Z,6.57
2018-07-13T09:46:57.164Z,5.37
2018-07-13T09:49:24.769Z,4.50
2018-07-13T09:51:52.563Z,5.83
2018-07-13T09:54:20.269Z,2.67
2018-07-13T09:56:48.045Z,10.90
2018-07-13T09:59:15.774Z,6.33
2018-07-13T10:01:43.734Z,6.50
2018-07-13T10:04:11.627Z,7.53
2018-07-13T10:06:39.409Z,4.40
2018-07-13T10:09:07.161Z,7.77
2018-07-13T10:11:35.034Z,6.00
2018-07-13T10:14:03.257Z,5.17
2018-07-13T10:16:31.129Z,5.43
2018-07-13T10:18:58.921Z,4.53
2018-07-13T10:21:28.119Z,6.10
2018-07-13T10:23:55.992Z,5.67
2018-07-13T10:26:33.493Z,6.30
2018-07-13T10:29:03.246Z,6.70
2018-07-13T10:31:31.258Z,4.63
2018-07-13T10:33:59.109Z,6.07
2018-07-13T10:36:27.391Z,14.47
2018-07-13T10:38:55.060Z,8.10
2018-07-13T10:41:22.864Z,9.10
2018-07-13T10:43:50.702Z,5.83
2018-07-13T10:46:18.690Z,6.37
2018-07-13T10:48:46.464Z,7.00
2018-07-13T10:51:14.189Z,6.37
2018-07-13T10:53:41.975Z,11.07
2018-07-13T10:56:09.671Z,5.03
2018-07-13T10:58:37.449Z,8.73
2018-07-13T11:01:05.091Z,4.50
2018-07-13T11:03:32.992Z,7.67
2018-07-13T11:06:00.652Z,4.27
2018-07-13T11:08:28.372Z,6.57
2018-07-13T11:10:56.077Z,5.07
2018-07-13T11:13:23.751Z,4.47
2018-07-13T11:15:51.565Z,6.40
2018-07-13T11:18:19.244Z,3.27
2018-07-13T11:20:47.042Z,2.60
2018-07-13T11:23:14.707Z,7.40
2018-07-13T11:25:42.402Z,8.43
2018-07-13T11:28:10.273Z,5.93
2018-07-13T11:30:37.945Z,10.63
2018-07-13T11:33:05.804Z,5.30
2018-07-13T11:35:33.625Z,4.77
2018-07-13T11:38:01.602Z,4.07
2018-07-13T11:40:29.321Z,6.43
2018-07-13T11:42:57.051Z,8.10
2018-07-13T11:45:24.761Z,7.10
2018-07-13T11:47:52.467Z,5.97
2018-07-13T11:50:20.133Z,6.97
2018-07-13T11:52:47.789Z,6.33
2018-07-13T11:55:15.521Z,7.00
2018-07-13T11:57:43.210Z,7.05
2018-07-13T12:00:10.971Z,6.58
2018-07-13T12:02:38.667Z,6.25
2018-07-13T12:05:06.341Z,4.20
2018-07-13T12:07:34.137Z,6.58
2018-07-13T12:10:01.983Z,5.25
2018-07-13T12:12:29.636Z,3.72
2018-07-13T12:14:57.329Z,5.60
2018-07-13T12:17:25.026Z,5.42
2018-07-13T12:19:52.751Z,3.87
2018-07-13T12:22:20.405Z,6.35
2018-07-13T12:24:48.130Z,4.22
2018-07-13T12:27:15.817Z,3.87
2018-07-13T12:29:43.513Z,8.60
2018-07-13T12:32:11.187Z,8.23
2018-07-13T12:34:38.762Z,5.42
2018-07-13T12:37:06.530Z,6.45
2018-07-13T12:39:34.225Z,7.05
2018-07-13T12:42:01.918Z,5.90
2018-07-13T12:44:29.672Z,7.03
2018-07-13T12:46:57.270Z,4.47
2018-07-13T12:49:24.956Z,6.87
2018-07-13T12:51:52.790Z,5.62
2018-07-13T12:54:20.726Z,5.28
2018-07-13T12:56:48.344Z,5.03
2018-07-13T12:59:15.985Z,4.80
2018-07-13T13:01:43.687Z,5.42
2018-07-13T13:04:11.402Z,6.37
2018-07-13T13:06:39.106Z,5.53
2018-07-13T13:09:06.861Z,5.40
2018-07-13T13:11:34.641Z,4.40
2018-07-13T13:14:02.879Z,5.67
2018-07-13T13:16:30.576Z,6.47
2018-07-13T13:18:58.549Z,8.15
2018-07-13T13:21:26.412Z,6.50
2018-07-13T13:23:54.125Z,3.20
2018-07-13T13:26:21.837Z,4.12
2018-07-13T13:28:49.520Z,5.22
2018-07-13T13:31:17.213Z,5.22
2018-07-13T13:33:44.919Z,6.42
2018-07-13T13:36:12.985Z,7.33
2018-07-13T13:38:40.821Z,8.25
2018-07-13T13:41:08.517Z,6.95
2018-07-13T13:43:36.213Z,6.37
2018-07-13T13:46:03.848Z,4.05
2018-07-13T13:48:32.101Z,3.47
2018-07-13T13:50:59.975Z,7.35
2018-07-13T13:53:27.674Z,7.20
2018-07-13T13:55:55.370Z,5.70
2018-07-13T13:58:23.061Z,4.50
2018-07-13T14:00:50.802Z,3.60
2018-07-13T14:03:18.637Z,7.47
2018-07-13T14:05:47.022Z,9.30
2018-07-13T14:08:15.105Z,2.98
2018-07-13T14:10:42.832Z,7.80
2018-07-13T14:13:10.560Z,8.00
2018-07-13T14:15:38.320Z,12.50
2018-07-13T14:18:06.013Z,5.50
2018-07-13T14:20:33.690Z,6.10
2018-07-13T14:23:01.353Z,8.90
2018-07-13T14:25:29.067Z,7.97
2018-07-13T14:27:56.890Z,5.78
2018-07-13T14:30:24.573Z,6.00
2018-07-13T14:32:52.273Z,3.67
2018-07-13T14:35:20.017Z,7.00
2018-07-13T14:37:48.125Z,5.30
2018-07-13T14:40:15.892Z,4.97
2018-07-13T14:42:43.744Z,8.33
2018-07-13T14:45:11.560Z,6.03
2018-07-13T14:47:39.624Z,9.55
2018-07-13T14:50:07.370Z,4.40
2018-07-13T14:52:35.047Z,7.47
2018-07-13T14:55:02.828Z,6.40
2018-07-13T14:57:30.570Z,4.10
2018-07-13T14:59:58.293Z,4.83
2018-07-13T15:02:25.985Z,4.87
2018-07-13T15:04:53.677Z,5.45
2018-07-13T15:07:21.444Z,6.55
2018-07-13T15:09:49.148Z,7.05
2018-07-13T15:12:16.872Z,4.12
2018-07-13T15:14:44.622Z,7.03
2018-07-13T15:17:12.272Z,4.70
2018-07-13T15:19:39.927Z,4.58
2018-07-13T15:22:07.583Z,5.28
2018-07-13T15:24:35.269Z,3.17
2018-07-13T15:27:02.939Z,4.67
2018-07-13T15:29:30.581Z,8.73
2018-07-13T15:31:58.295Z,5.05
2018-07-13T15:34:26.021Z,5.33
2018-07-13T15:36:53.857Z,4.28
2018-07-13T15:39:21.544Z,5.25
2018-07-13T15:41:49.279Z,4.05
2018-07-13T15:44:17.013Z,4.90
2018-07-13T15:46:44.893Z,7.53
2018-07-13T15:49:12.595Z,3.42
2018-07-13T15:51:40.284Z,2.95
2018-07-13T15:54:08.034Z,3.90
2018-07-13T15:56:35.758Z,4.92
2018-07-13T15:59:03.476Z,5.33
2018-07-13T16:01:31.202Z,4.45
2018-07-13T16:03:58.877Z,11.12
2018-07-13T16:06:26.575Z,4.60
2018-07-13T16:08:54.272Z,9.13
2018-07-13T16:11:21.932Z,3.72
2018-07-13T16:13:49.982Z,4.33
2018-07-13T16:16:17.786Z,10.48
2018-07-13T16:18:45.396Z,4.67
2018-07-13T16:21:13.122Z,4.10
2018-07-13T16:23:41.822Z,4.60
2018-07-13T16:26:09.497Z,4.67
2018-07-13T16:28:37.214Z,6.33
2018-07-13T16:31:05.118Z,7.83
2018-07-13T16:33:32.875Z,7.80
2018-07-13T16:36:00.601Z,5.95
2018-07-13T16:38:28.332Z,6.35
2018-07-13T16:40:56.028Z,5.67
2018-07-13T16:43:23.730Z,3.65
2018-07-13T16:45:51.409Z,4.10
2018-07-13T16:48:19.073Z,3.75
2018-07-13T16:50:46.834Z,5.53
2018-07-13T16:53:14.501Z,11.12
2018-07-13T16:55:42.225Z,4.97
2018-07-13T16:58:09.893Z,5.20
2018-07-13T17:00:37.585Z,7.37
2018-07-13T17:03:05.462Z,2.55
2018-07-13T17:05:33.118Z,3.42
2018-07-13T17:08:00.805Z,7.83
2018-07-13T17:10:28.477Z,4.28
2018-07-13T17:12:56.144Z,5.30
2018-07-13T17:15:23.842Z,3.60
2018-07-13T17:17:51.523Z,3.85
2018-07-13T17:20:19.242Z,2.83
2018-07-13T17:22:46.987Z,3.65
2018-07-13T17:25:14.682Z,3.45
2018-07-13T17:27:42.370Z,6.87
2018-07-13T17:30:10.561Z,6.35
2018-07-13T17:32:38.603Z,3.87
2018-07-13T17:35:06.369Z,8.18
2018-07-13T17:37:34.185Z,4.00
2018-07-13T17:40:02.024Z,3.98
2018-07-13T17:42:29.743Z,3.25
2018-07-13T17:44:57.559Z,5.22
2018-07-13T17:47:25.339Z,3.47
2018-07-13T17:49:53.098Z,5.10
2018-07-13T17:52:20.812Z,4.58
2018-07-13T17:54:48.497Z,5.78
2018-07-13T17:57:16.225Z,5.35
2018-07-13T17:59:43.934Z,10.25
2018-07-13T18:02:11.591Z,8.40
2018-07-13T18:04:39.283Z,4.30
2018-07-13T18:07:07.032Z,8.78
2018-07-13T18:09:34.719Z,4.85
2018-07-13T18:12:02.408Z,4.28
2018-07-13T18:14:30.053Z,3.22
2018-07-13T18:16:57.742Z,5.30
2018-07-13T18:19:25.417Z,5.67
2018-07-13T18:21:53.078Z,5.28
2018-07-13T18:24:20.856Z,3.62
2018-07-13T18:26:48.506Z,4.85
2018-07-13T18:29:16.197Z,5.60
2018-07-13T18:31:43.931Z,3.85
2018-07-13T18:34:11.617Z,4.55
2018-07-13T18:36:39.287Z,4.25
2018-07-13T18:39:07.258Z,7.47
2018-07-13T18:41:34.977Z,9.45
2018-07-13T18:44:02.697Z,5.67
2018-07-13T18:46:30.351Z,4.70
2018-07-13T18:48:58.097Z,4.10
2018-07-13T18:51:25.779Z,5.58
2018-07-13T18:53:53.453Z,3.73
2018-07-13T18:56:21.219Z,4.57
2018-07-13T18:58:48.966Z,5.20
2018-07-13T19:01:16.589Z,4.77
2018-07-13T19:03:44.313Z,8.67
2018-07-13T19:06:12.059Z,3.60
2018-07-13T19:08:39.788Z,8.80
2018-07-13T19:11:07.480Z,3.67
2018-07-13T19:13:35.223Z,5.73
2018-07-13T19:16:02.898Z,3.30
2018-07-13T19:18:30.630Z,5.67
2018-07-13T19:20:58.291Z,5.20
2018-07-13T19:23:25.880Z,5.37
2018-07-13T19:25:53.587Z,3.07
2018-07-13T19:28:22.201Z,3.53
2018-07-13T19:30:50.004Z,6.83
2018-07-13T19:33:17.678Z,3.40
2018-07-13T19:35:45.350Z,5.67
2018-07-13T19:38:13.063Z,9.23
2018-07-13T19:40:40.795Z,6.17
2018-07-13T19:43:08.526Z,5.33
2018-07-13T19:45:36.393Z,7.53
2018-07-13T19:48:05.275Z,10.03
2018-07-13T19:50:32.934Z,11.77
2018-07-13T19:53:00.613Z,8.07
2018-07-13T19:55:28.340Z,5.97
2018-07-13T19:57:56.055Z,11.10
2018-07-13T20:00:23.720Z,6.77
2018-07-13T20:02:51.484Z,7.93
2018-07-13T20:05:19.096Z,6.37
2018-07-13T20:07:46.775Z,3.20
2018-07-13T20:10:14.494Z,4.23
2018-07-13T20:12:42.290Z,3.63
2018-07-13T20:15:10.175Z,4.60
2018-07-13T20:17:37.853Z,3.33
2018-07-13T20:20:07.344Z,4.30
2018-07-13T20:22:35.201Z,3.57
2018-07-13T20:25:03.181Z,4.20
2018-07-13T20:27:31.223Z,4.10
2018-07-13T20:29:59.429Z,8.27
2018-07-13T20:32:27.829Z,4.80
2018-07-13T20:34:56.588Z,11.33
2018-07-13T20:37:24.595Z,6.07
2018-07-13T20:39:52.546Z,4.33
2018-07-13T20:42:20.630Z,4.27
2018-07-13T20:44:48.592Z,4.57
2018-07-13T20:47:16.674Z,4.30
2018-07-13T20:49:44.533Z,3.77
2018-07-13T20:52:12.608Z,2.60
2018-07-13T20:54:40.496Z,9.87
2018-07-13T20:57:08.287Z,5.93
2018-07-13T20:59:36.094Z,3.50
2018-07-13T21:02:04.284Z,5.40
2018-07-13T21:04:32.368Z,4.60
2018-07-13T21:07:00.286Z,10.63
2018-07-13T21:09:28.039Z,4.10
2018-07-13T21:11:55.938Z,4.10
2018-07-13T21:14:24.037Z,6.23
2018-07-13T21:16:51.805Z,6.37
2018-07-13T21:19:19.599Z,4.40
2018-07-13T21:21:47.435Z,11.57
2018-07-13T21:24:15.262Z,7.40
2018-07-13T21:26:43.217Z,6.03
2018-07-13T21:29:11.019Z,10.33
2018-07-13T21:31:38.847Z,5.37
2018-07-13T21:34:06.779Z,4.70
2018-07-13T21:36:34.563Z,5.87
2018-07-13T21:39:02.534Z,5.33
2018-07-13T21:41:30.534Z,4.40
2018-07-13T21:43:58.328Z,4.50
2018-07-13T21:46:26.158Z,6.30
2018-07-13T21:48:54.406Z,7.70
2018-07-13T21:51:22.144Z,6.33
2018-07-13T21:53:49.975Z,7.67
2018-07-13T21:56:17.967Z,5.20
2018-07-13T21:58:45.805Z,8.90
2018-07-13T22:01:13.648Z,5.03
2018-07-13T22:03:41.455Z,7.80
2018-07-13T22:06:09.275Z,6.20
2018-07-13T22:08:37.295Z,3.87
2018-07-13T22:11:05.090Z,6.77
2018-07-13T22:13:33.052Z,8.27
2018-07-13T22:16:00.912Z,5.57
2018-07-13T22:18:28.720Z,8.07
2018-07-13T22:20:57.053Z,4.63
2018-07-13T22:23:24.802Z,9.97
2018-07-13T22:25:52.580Z,4.70
2018-07-13T22:28:20.355Z,5.37
2018-07-13T22:30:48.586Z,6.83
2018-07-13T22:33:16.502Z,5.27
2018-07-13T22:35:44.263Z,6.10
2018-07-13T22:38:12.055Z,8.83
2018-07-13T22:40:39.826Z,5.67
2018-07-13T22:43:08.036Z,10.07
2018-07-13T22:45:35.853Z,7.17
2018-07-13T22:48:03.679Z,7.03
2018-07-13T22:50:31.470Z,4.70
2018-07-13T22:52:59.275Z,4.87
2018-07-13T22:55:27.032Z,5.20
2018-07-13T22:57:54.997Z,4.97
2018-07-13T23:00:23.049Z,4.87
2018-07-13T23:02:50.844Z,6.00
2018-07-13T23:05:18.809Z,8.07
2018-07-13T23:07:46.451Z,7.63
2018-07-13T23:10:14.286Z,6.50
2018-07-13T23:12:42.161Z,7.80
2018-07-13T23:15:10.058Z,8.93
2018-07-13T23:17:37.890Z,8.80
2018-07-13T23:20:05.740Z,9.50
2018-07-13T23:22:33.509Z,7.50
2018-07-13T23:25:01.758Z,8.67
2018-07-13T23:27:29.550Z,12.80
2018-07-13T23:29:57.361Z,13.23
2018-07-13T23:32:25.128Z,11.63
2018-07-13T23:34:53.208Z,15.17
2018-07-13T23:37:21.005Z,10.50
2018-07-13T23:39:48.822Z,10.97
2018-07-13T23:42:16.658Z,9.17
2018-07-13T23:44:44.440Z,8.70
2018-07-13T23:47:12.210Z,9.97
2018-07-13T23:49:40.243Z,11.33
2018-07-13T23:52:08.071Z,8.87
2018-07-13T23:54:36.111Z,8.27
2018-07-13T23:57:04.017Z,10.77
2018-07-13T23:59:31.862Z,9.17
